Time;durP1;ratioP1;P1;durP2;ratioP2;P2;SDS_P1;SDS_P2;PMS_P1;PMS_P2;Temp;Humidity;BMP_temperature;BMP_pressure;BME280_temperature;BME280_humidity;BME280_pressure;Samples;Min_cycle;Max_cycle;Signal;HPM_P1;HPM_P2
2021/09/17 00:00:31;;;;;;;6.73;5.63;;;12.80;99.90;;;;;;4997711;28;20184;-73
2021/09/17 00:02:57;;;;;;;6.07;5.37;;;12.70;99.90;;;;;;5014114;28;20187;-73
2021/09/17 00:05:23;;;;;;;6.50;5.90;;;12.70;99.90;;;;;;4997898;28;20622;-73
2021/09/17 00:07:48;;;;;;;6.87;5.20;;;12.70;99.90;;;;;;5014096;28;20195;-73
2021/09/17 00:10:14;;;;;;;6.27;5.57;;;12.70;99.90;;;;;;4997448;28;20199;-73
2021/09/17 00:12:40;;;;;;;5.60;5.07;;;12.70;99.90;;;;;;4997795;28;20857;-72
2021/09/17 00:15:06;;;;;;;6.70;5.60;;;12.70;99.90;;;;;;5014026;28;20180;-73
2021/09/17 00:17:32;;;;;;;5.80;5.30;;;12.60;99.90;;;;;;5013940;28;20200;-72
2021/09/17 00:19:57;;;;;;;8.80;5.83;;;12.70;99.90;;;;;;5014822;28;20184;-73
2021/09/17 00:22:23;;;;;;;6.57;5.87;;;12.60;99.90;;;;;;4997388;28;20271;-73
2021/09/17 00:24:48;;;;;;;7.13;5.80;;;12.60;99.90;;;;;;5014922;28;20210;-72
2021/09/17 00:27:14;;;;;;;7.17;5.97;;;12.60;99.90;;;;;;4997368;28;20208;-72
2021/09/17 00:29:39;;;;;;;6.40;5.63;;;12.60;99.90;;;;;;5013620;28;20203;-72
2021/09/17 00:32:05;;;;;;;7.33;6.33;;;12.50;99.90;;;;;;5013582;28;20199;-73
2021/09/17 00:34:31;;;;;;;8.13;5.63;;;12.50;99.90;;;;;;5013573;28;20176;-72
2021/09/17 00:36:56;;;;;;;6.93;6.17;;;12.50;99.90;;;;;;5013640;28;20559;-73
2021/09/17 00:39:22;;;;;;;8.90;6.40;;;12.50;99.90;;;;;;5013470;28;20578;-72
2021/09/17 00:41:47;;;;;;;6.47;5.77;;;12.40;99.90;;;;;;5013422;28;20593;-73
2021/09/17 00:44:21;;;;;;;6.77;5.93;;;12.40;99.90;;;;;;5013561;28;20179;-72
2021/09/17 00:46:46;;;;;;;6.87;6.07;;;12.40;99.90;;;;;;4997367;28;20195;-73
2021/09/17 00:49:12;;;;;;;7.13;6.37;;;12.40;99.90;;;;;;4996938;28;20194;-72
2021/09/17 00:51:38;;;;;;;7.47;6.40;;;12.40;99.90;;;;;;5013328;28;20290;-72
2021/09/17 00:54:03;;;;;;;7.23;6.53;;;12.40;99.90;;;;;;5012953;28;20262;-72
2021/09/17 00:56:29;;;;;;;7.80;6.60;;;12.40;99.90;;;;;;4996897;28;20287;-72
2021/09/17 00:58:55;;;;;;;7.63;6.17;;;12.30;99.90;;;;;;5012989;28;20164;-73
2021/09/17 01:01:20;;;;;;;10.53;6.77;;;12.40;99.90;;;;;;4980706;28;20215;-72
2021/09/17 01:03:46;;;;;;;8.07;6.70;;;12.30;99.90;;;;;;5013027;28;20180;-73
2021/09/17 01:06:11;;;;;;;7.10;6.40;;;12.30;99.90;;;;;;4996504;28;20209;-73
2021/09/17 01:08:37;;;;;;;8.97;6.17;;;12.40;99.90;;;;;;4996821;28;20175;-73
2021/09/17 01:11:03;;;;;;;9.73;6.43;;;12.40;99.90;;;;;;4996676;28;20253;-72
2021/09/17 01:13:28;;;;;;;7.30;6.30;;;12.50;99.90;;;;;;4996648;28;20663;-73
2021/09/17 01:15:54;;;;;;;7.10;6.30;;;12.50;99.90;;;;;;4996520;28;20698;-72
2021/09/17 01:18:19;;;;;;;6.63;6.00;;;12.50;99.90;;;;;;4996342;28;20178;-72
2021/09/17 01:20:45;;;;;;;6.87;6.17;;;12.40;99.90;;;;;;4996331;28;20708;-72
2021/09/17 01:23:10;;;;;;;6.73;6.13;;;12.40;99.90;;;;;;4980132;28;20182;-72
2021/09/17 01:25:36;;;;;;;7.93;6.63;;;12.40;99.90;;;;;;4996034;28;20176;-72
2021/09/17 01:28:02;;;;;;;7.40;6.40;;;12.40;99.90;;;;;;4996374;28;20250;-72
2021/09/17 01:30:27;;;;;;;8.27;7.00;;;12.40;99.90;;;;;;5012260;28;20200;-73
2021/09/17 01:32:53;;;;;;;7.30;6.60;;;12.40;99.90;;;;;;4996107;28;20255;-72
2021/09/17 01:35:20;;;;;;;7.00;6.27;;;12.40;99.90;;;;;;5012345;28;20172;-73
2021/09/17 01:37:46;;;;;;;7.70;6.90;;;12.40;99.90;;;;;;4996055;28;20195;-74
2021/09/17 01:40:11;;;;;;;8.57;6.60;;;12.40;99.90;;;;;;4995860;28;20251;-73
2021/09/17 01:42:37;;;;;;;8.93;6.67;;;12.50;99.90;;;;;;4996088;28;20198;-73
2021/09/17 01:45:04;;;;;;;7.40;6.70;;;12.50;99.90;;;;;;5013519;28;20184;-72
2021/09/17 01:47:29;;;;;;;9.27;6.33;;;12.50;99.90;;;;;;5011915;28;20269;-73
2021/09/17 01:49:55;;;;;;;7.67;6.87;;;12.60;99.90;;;;;;5011859;28;20179;-74
2021/09/17 01:52:20;;;;;;;8.20;7.03;;;12.60;99.90;;;;;;5012164;28;20256;-73
2021/09/17 01:54:46;;;;;;;9.10;6.57;;;12.60;99.90;;;;;;5012093;28;20172;-73
2021/09/17 01:57:11;;;;;;;9.30;6.97;;;12.70;99.90;;;;;;4979486;28;20199;-72
2021/09/17 01:59:37;;;;;;;8.07;6.50;;;12.60;99.90;;;;;;5011726;28;20259;-72
2021/09/17 02:02:02;;;;;;;8.53;7.63;;;12.60;99.90;;;;;;4979291;28;20639;-72
2021/09/17 02:04:28;;;;;;;8.70;7.80;;;12.60;99.90;;;;;;5011235;28;20262;-72
2021/09/17 02:06:54;;;;;;;8.53;7.53;;;12.70;99.90;;;;;;5011902;28;20201;-72
2021/09/17 02:09:19;;;;;;;10.13;7.70;;;12.70;99.90;;;;;;5011883;28;20263;-73
2021/09/17 02:11:45;;;;;;;8.70;7.80;;;12.70;99.90;;;;;;5012797;28;20254;-73
2021/09/17 02:14:10;;;;;;;10.20;7.90;;;12.70;99.90;;;;;;5012978;28;20245;-73
2021/09/17 02:16:37;;;;;;;8.43;7.53;;;12.70;99.90;;;;;;5011882;28;20192;-72
2021/09/17 02:19:03;;;;;;;9.17;8.20;;;12.70;99.90;;;;;;4995360;28;20255;-73
2021/09/17 02:21:29;;;;;;;8.27;7.40;;;12.70;99.90;;;;;;4995621;28;20283;-73
2021/09/17 02:23:54;;;;;;;8.17;7.37;;;12.70;99.90;;;;;;5013163;28;20184;-72
2021/09/17 02:26:20;;;;;;;8.70;7.80;;;12.70;99.90;;;;;;4995366;28;20221;-72
2021/09/17 02:28:45;;;;;;;9.83;8.23;;;12.80;99.90;;;;;;5011355;28;20242;-72
2021/09/17 02:31:11;;;;;;;8.97;8.07;;;12.80;99.90;;;;;;4995121;28;20290;-72
2021/09/17 02:33:37;;;;;;;9.63;7.90;;;12.80;99.90;;;;;;5011522;28;20750;-73
2021/09/17 02:36:03;;;;;;;9.83;7.93;;;12.80;99.90;;;;;;4995098;28;20670;-72
2021/09/17 02:38:28;;;;;;;9.27;8.27;;;12.80;99.90;;;;;;4995094;28;20222;-72
2021/09/17 02:40:54;;;;;;;9.33;8.33;;;12.80;99.90;;;;;;4994981;28;20183;-72
2021/09/17 02:43:19;;;;;;;9.37;8.27;;;12.90;99.90;;;;;;4979235;28;20211;-72
2021/09/17 02:45:45;;;;;;;9.77;8.10;;;12.90;99.90;;;;;;4978752;28;20555;-73
2021/09/17 02:48:10;;;;;;;9.40;7.60;;;12.90;99.90;;;;;;4995019;28;20179;-72
2021/09/17 02:50:36;;;;;;;10.10;8.37;;;12.90;99.90;;;;;;5010999;28;20210;-72
2021/09/17 02:53:02;;;;;;;12.53;8.40;;;12.90;99.90;;;;;;4994437;28;20175;-72
2021/09/17 02:55:27;;;;;;;9.73;8.33;;;13.00;99.90;;;;;;4994917;28;20810;-72
2021/09/17 02:57:53;;;;;;;12.00;8.50;;;12.90;99.90;;;;;;5011140;28;20175;-72
2021/09/17 03:00:18;;;;;;;9.20;8.30;;;13.00;99.90;;;;;;4994859;28;20273;-72
2021/09/17 03:02:45;;;;;;;9.60;8.57;;;13.00;99.90;;;;;;4978645;28;20242;-72
2021/09/17 03:05:10;;;;;;;12.33;8.57;;;13.00;99.90;;;;;;4994944;28;20175;-72
2021/09/17 03:07:36;;;;;;;11.73;9.70;;;13.00;99.90;;;;;;5011040;28;20200;-72
2021/09/17 03:10:02;;;;;;;11.23;9.20;;;13.00;99.90;;;;;;4994507;28;20183;-72
2021/09/17 03:12:27;;;;;;;12.10;10.17;;;13.00;99.90;;;;;;5011174;28;20643;-72
2021/09/17 03:14:53;;;;;;;10.90;9.47;;;13.00;99.90;;;;;;4994801;28;20241;-72
2021/09/17 03:17:18;;;;;;;13.27;9.53;;;13.10;99.90;;;;;;4998359;28;20202;-72
2021/09/17 03:19:44;;;;;;;12.20;9.37;;;13.00;99.90;;;;;;4998349;28;20175;-72
2021/09/17 03:22:09;;;;;;;12.10;10.10;;;13.00;99.90;;;;;;4998660;28;20184;-72
2021/09/17 03:24:35;;;;;;;12.00;8.83;;;13.10;99.90;;;;;;5014929;28;20184;-72
2021/09/17 03:27:00;;;;;;;12.43;10.00;;;13.10;99.90;;;;;;5015937;28;20586;-72
2021/09/17 03:29:26;;;;;;;11.17;9.50;;;13.10;99.90;;;;;;5015786;28;20219;-72
2021/09/17 03:31:52;;;;;;;11.47;9.97;;;13.10;99.90;;;;;;4998448;28;20211;-72
2021/09/17 03:34:17;;;;;;;11.37;10.17;;;13.10;99.90;;;;;;5028613;23;20240;-81
2021/09/17 03:36:43;;;;;;;13.13;10.37;;;13.10;99.90;;;;;;5023091;28;20626;-80
2021/09/17 03:39:12;;;;;;;12.77;10.70;;;13.10;99.90;;;;;;5007791;28;20175;-81
2021/09/17 03:41:38;;;;;;;12.17;10.93;;;13.20;99.90;;;;;;5007428;28;20275;-81
2021/09/17 03:44:04;;;;;;;13.47;11.43;;;13.20;99.90;;;;;;5004515;28;20197;-80
2021/09/17 03:46:30;;;;;;;13.93;11.43;;;13.20;99.90;;;;;;5020338;28;20216;-81
2021/09/17 03:48:55;;;;;;;12.60;10.60;;;13.20;99.90;;;;;;4988549;28;20604;-81
2021/09/17 03:51:21;;;;;;;13.73;11.70;;;13.20;99.90;;;;;;5016869;28;20215;-81
2021/09/17 03:53:46;;;;;;;15.73;12.07;;;13.20;99.90;;;;;;5020947;28;20214;-81
2021/09/17 03:56:12;;;;;;;16.13;12.10;;;13.20;99.90;;;;;;5037000;28;20211;-81
2021/09/17 03:58:37;;;;;;;15.53;12.57;;;13.20;99.90;;;;;;4996272;28;20212;-81
2021/09/17 04:01:03;;;;;;;13.67;12.23;;;13.20;99.90;;;;;;5018155;28;20184;-81
2021/09/17 04:03:28;;;;;;;15.13;12.03;;;13.30;99.90;;;;;;5002183;28;20200;-81
2021/09/17 04:05:54;;;;;;;15.07;12.23;;;13.30;99.90;;;;;;4984978;28;20215;-81
2021/09/17 04:08:19;;;;;;;16.80;12.90;;;13.30;99.90;;;;;;4985375;28;20551;-81
2021/09/17 04:10:45;;;;;;;16.00;12.73;;;13.30;99.90;;;;;;4984695;28;20265;-80
2021/09/17 04:13:10;;;;;;;17.87;14.43;;;13.30;99.90;;;;;;5000759;28;20199;-81
2021/09/17 04:15:36;;;;;;;19.10;13.57;;;13.30;99.90;;;;;;5000953;28;20180;-81
2021/09/17 04:18:01;;;;;;;16.93;13.17;;;13.30;99.90;;;;;;4985024;28;20176;-81
2021/09/17 04:20:27;;;;;;;18.90;14.17;;;13.30;99.90;;;;;;5018231;28;20190;-81
2021/09/17 04:22:52;;;;;;;19.70;14.40;;;13.30;99.90;;;;;;4985041;28;20563;-78
2021/09/17 04:25:18;;;;;;;18.83;14.80;;;13.30;99.90;;;;;;4985092;28;20184;-81
2021/09/17 04:27:44;;;;;;;17.03;14.23;;;13.30;99.90;;;;;;5016542;28;20185;-81
2021/09/17 04:30:10;;;;;;;18.53;14.57;;;13.30;99.90;;;;;;4984598;28;20181;-81
2021/09/17 04:32:36;;;;;;;19.33;15.90;;;13.30;99.90;;;;;;5017611;28;20850;-80
2021/09/17 04:35:02;;;;;;;24.27;16.13;;;13.30;99.90;;;;;;5000619;28;20214;-81
2021/09/17 04:37:28;;;;;;;18.47;16.03;;;13.30;99.90;;;;;;5000834;28;20196;-80
2021/09/17 04:39:53;;;;;;;20.57;16.63;;;13.30;99.90;;;;;;4984129;28;20263;-81
2021/09/17 04:42:19;;;;;;;23.93;17.77;;;13.40;99.90;;;;;;4984809;28;20188;-80
2021/09/17 04:44:45;;;;;;;23.53;17.27;;;13.40;99.90;;;;;;5000849;28;20206;-81
2021/09/17 04:47:10;;;;;;;19.97;16.80;;;13.40;99.90;;;;;;5017238;28;20556;-81
2021/09/17 04:49:36;;;;;;;23.43;17.53;;;13.40;99.90;;;;;;5000108;28;20190;-81
2021/09/17 04:52:01;;;;;;;24.33;17.77;;;13.40;99.90;;;;;;4982607;28;20220;-81
2021/09/17 04:54:27;;;;;;;21.80;17.93;;;13.40;99.90;;;;;;4984208;28;20203;-80
2021/09/17 04:56:52;;;;;;;22.40;17.57;;;13.40;99.90;;;;;;4998316;28;20207;-80
2021/09/17 04:59:18;;;;;;;23.73;17.57;;;13.40;99.90;;;;;;4998602;28;20234;-82
2021/09/17 05:01:44;;;;;;;20.87;17.53;;;13.40;99.90;;;;;;5014825;28;20238;-82
2021/09/17 05:04:09;;;;;;;22.83;18.03;;;13.40;99.90;;;;;;4996663;28;20208;-83
2021/09/17 05:06:35;;;;;;;24.03;18.93;;;13.40;99.90;;;;;;4978602;28;20212;-82
2021/09/17 05:09:00;;;;;;;23.70;18.63;;;13.40;99.90;;;;;;4988855;28;20184;-82
2021/09/17 05:11:26;;;;;;;22.90;18.33;;;13.40;99.90;;;;;;4991046;28;20254;-82
2021/09/17 05:13:52;;;;;;;25.30;20.17;;;13.40;99.90;;;;;;4994482;28;20660;-81
2021/09/17 05:16:17;;;;;;;26.80;19.77;;;13.40;99.90;;;;;;4986992;28;20256;-82
2021/09/17 05:18:45;;;;;;;26.17;20.93;;;13.40;99.90;;;;;;4987576;28;20192;-79
2021/09/17 05:21:11;;;;;;;30.00;22.13;;;13.40;99.90;;;;;;4966147;28;20180;-79
2021/09/17 05:23:37;;;;;;;30.80;21.57;;;13.50;99.90;;;;;;4995667;28;20203;-79
2021/09/17 05:26:03;;;;;;;30.47;22.03;;;13.50;99.90;;;;;;4992594;28;20189;-82
2021/09/17 05:28:29;;;;;;;27.10;22.03;;;13.50;99.90;;;;;;4979297;28;20278;-82
2021/09/17 05:30:54;;;;;;;27.43;21.53;;;13.50;99.90;;;;;;4977946;28;20258;-82
2021/09/17 05:33:20;;;;;;;28.73;22.63;;;13.50;99.90;;;;;;4984906;28;20211;-81
2021/09/17 05:35:45;;;;;;;29.63;22.73;;;13.50;99.90;;;;;;4982443;28;20238;-81
2021/09/17 05:38:11;;;;;;;29.10;22.13;;;13.60;99.90;;;;;;5013796;28;20195;-80
2021/09/17 05:40:36;;;;;;;30.37;22.33;;;13.60;99.90;;;;;;4996556;28;20220;-80
2021/09/17 05:43:02;;;;;;;29.97;22.43;;;13.60;99.90;;;;;;4985446;28;20204;-82
2021/09/17 05:45:28;;;;;;;30.43;23.63;;;13.60;99.90;;;;;;4984680;28;20237;-83
2021/09/17 05:47:53;;;;;;;33.27;24.10;;;13.60;99.90;;;;;;4980655;28;20281;-82
2021/09/17 05:50:19;;;;;;;32.30;24.83;;;13.60;99.90;;;;;;4992266;28;20201;-82
2021/09/17 05:52:44;;;;;;;34.83;25.97;;;13.70;99.90;;;;;;4992242;28;20236;-81
2021/09/17 05:55:10;;;;;;;35.40;25.83;;;13.70;99.90;;;;;;4994686;28;20616;-82
2021/09/17 05:57:36;;;;;;;35.93;25.90;;;13.70;99.90;;;;;;4994755;28;20187;-78
2021/09/17 06:00:02;;;;;;;37.87;26.70;;;13.70;99.90;;;;;;5009198;28;20181;-78
2021/09/17 06:02:27;;;;;;;39.03;26.93;;;13.80;99.90;;;;;;4991606;28;20181;-81
2021/09/17 06:04:53;;;;;;;42.33;27.83;;;13.80;99.90;;;;;;5004177;28;20688;-79
2021/09/17 06:07:18;;;;;;;41.00;28.70;;;13.90;99.90;;;;;;4983624;28;20184;-87
2021/09/17 06:09:44;;;;;;;47.67;28.70;;;13.90;99.90;;;;;;4989004;28;20188;-88
2021/09/17 06:12:09;;;;;;;47.97;31.23;;;13.90;99.90;;;;;;5002804;28;20207;-86
2021/09/17 06:14:35;;;;;;;54.63;30.93;;;14.00;99.90;;;;;;4986341;28;20199;-82
2021/09/17 06:17:01;;;;;;;51.93;31.47;;;14.00;99.90;;;;;;4982358;28;20169;-81
2021/09/17 06:19:26;;;;;;;49.07;30.70;;;14.00;99.90;;;;;;5004333;28;20208;-83
2021/09/17 06:21:52;;;;;;;49.00;31.60;;;14.10;99.90;;;;;;5013325;28;20316;-81
2021/09/17 06:24:17;;;;;;;62.97;35.53;;;14.10;99.90;;;;;;5012577;28;20671;-84
2021/09/17 06:26:43;;;;;;;60.93;35.27;;;14.10;99.90;;;;;;4981655;28;20655;-83
2021/09/17 06:29:09;;;;;;;72.10;38.23;;;14.20;99.90;;;;;;4981603;28;20559;-80
2021/09/17 06:31:35;;;;;;;76.93;40.00;;;14.30;99.90;;;;;;4998963;28;20204;-84
2021/09/17 06:34:01;;;;;;;71.83;39.10;;;14.30;99.90;;;;;;4981713;28;20258;-84
2021/09/17 06:36:26;;;;;;;70.87;40.07;;;14.30;99.90;;;;;;4996945;28;20558;-85
2021/09/17 06:38:52;;;;;;;73.77;39.77;;;14.40;99.90;;;;;;4987744;28;20172;-86
2021/09/17 06:41:17;;;;;;;78.10;41.30;;;14.40;99.90;;;;;;4992369;28;20181;-84
2021/09/17 06:43:43;;;;;;;72.73;41.53;;;14.50;99.90;;;;;;4990767;28;20212;-84
2021/09/17 06:46:09;;;;;;;71.00;40.13;;;14.60;99.90;;;;;;4978413;28;20594;-85
2021/09/17 06:48:35;;;;;;;70.73;38.83;;;14.60;99.90;;;;;;4984619;28;20204;-84
2021/09/17 06:51:01;;;;;;;67.23;37.77;;;14.70;99.90;;;;;;4996084;28;20592;-84
2021/09/17 06:53:26;;;;;;;63.70;36.90;;;14.70;99.90;;;;;;4981469;28;20261;-84
2021/09/17 06:55:52;;;;;;;62.90;36.27;;;14.70;99.90;;;;;;4997954;28;20710;-85
2021/09/17 06:58:18;;;;;;;63.43;37.73;;;14.70;99.90;;;;;;4995656;28;20651;-83
2021/09/17 07:00:43;;;;;;;65.00;37.33;;;14.80;99.90;;;;;;4991575;28;20658;-84
2021/09/17 07:03:09;;;;;;;64.80;36.60;;;14.80;99.90;;;;;;4998875;28;20196;-83
2021/09/17 07:05:35;;;;;;;64.87;36.20;;;14.90;99.90;;;;;;4988609;28;20185;-81
2021/09/17 07:08:02;;;;;;;63.90;36.40;;;14.90;99.90;;;;;;4979125;28;20287;-81
2021/09/17 07:10:27;;;;;;;63.97;38.73;;;14.90;99.90;;;;;;4994117;28;20208;-81
2021/09/17 07:12:53;;;;;;;63.17;37.53;;;15.00;99.90;;;;;;4995488;28;20207;-81
2021/09/17 07:15:18;;;;;;;69.17;38.53;;;15.00;99.90;;;;;;4995874;28;20183;-81
2021/09/17 07:17:44;;;;;;;69.50;40.87;;;15.00;99.90;;;;;;4978602;28;20176;-81
2021/09/17 07:20:10;;;;;;;70.77;40.47;;;15.10;99.90;;;;;;4979100;28;20176;-84
2021/09/17 07:22:36;;;;;;;71.97;41.27;;;15.10;99.90;;;;;;4978910;28;20246;-80
2021/09/17 07:25:02;;;;;;;79.43;42.70;;;15.10;99.90;;;;;;4976580;28;20798;-81
2021/09/17 07:27:28;;;;;;;74.63;43.20;;;15.20;99.90;;;;;;4991161;28;20193;-81
2021/09/17 07:29:53;;;;;;;71.07;41.63;;;15.20;99.90;;;;;;4990825;28;20177;-81
2021/09/17 07:32:19;;;;;;;71.50;41.23;;;15.30;99.90;;;;;;4990519;28;20240;-85
2021/09/17 07:34:44;;;;;;;72.70;41.93;;;15.20;99.90;;;;;;4996249;28;20722;-85
2021/09/17 07:37:10;;;;;;;73.33;43.07;;;15.30;99.90;;;;;;4984178;28;20315;-84
2021/09/17 07:39:35;;;;;;;70.27;40.80;;;15.50;99.90;;;;;;4987121;28;20181;-85
2021/09/17 07:42:01;;;;;;;76.70;42.23;;;15.50;99.90;;;;;;5010614;28;20723;-85
2021/09/17 07:44:27;;;;;;;66.10;40.33;;;15.50;99.90;;;;;;5008125;28;20201;-80
2021/09/17 07:46:52;;;;;;;64.70;40.03;;;15.70;99.90;;;;;;5006804;28;20220;-80
2021/09/17 07:49:18;;;;;;;73.90;44.03;;;15.80;99.90;;;;;;4990351;28;20236;-81
2021/09/17 07:51:43;;;;;;;67.77;40.40;;;15.80;99.90;;;;;;4990270;28;20672;-80
2021/09/17 07:54:09;;;;;;;62.27;39.80;;;15.80;99.90;;;;;;5006997;28;20204;-78
2021/09/17 07:56:34;;;;;;;61.23;38.60;;;15.90;99.90;;;;;;4990624;28;20251;-78
2021/09/17 07:59:00;;;;;;;64.93;39.70;;;15.80;99.90;;;;;;4991789;28;20282;-79
2021/09/17 08:01:25;;;;;;;63.63;38.93;;;15.90;99.90;;;;;;5008300;28;20317;-78
2021/09/17 08:03:51;;;;;;;63.07;39.53;;;16.00;99.90;;;;;;5014306;28;20204;-80
2021/09/17 08:06:16;;;;;;;63.57;38.00;;;16.00;99.90;;;;;;4998636;28;20212;-80
2021/09/17 08:08:42;;;;;;;60.60;38.27;;;16.10;99.90;;;;;;4996614;28;20272;-78
2021/09/17 08:11:07;;;;;;;58.27;36.23;;;16.10;99.90;;;;;;4995321;28;20264;-78
2021/09/17 08:13:33;;;;;;;62.50;37.77;;;16.10;99.90;;;;;;4995053;28;20196;-78
2021/09/17 08:15:59;;;;;;;58.10;36.63;;;16.10;99.90;;;;;;5011806;28;20267;-78
2021/09/17 08:18:25;;;;;;;59.53;37.53;;;16.10;99.90;;;;;;5011573;28;20255;-78
2021/09/17 08:20:53;;;;;;;58.33;37.47;;;16.10;99.90;;;;;;4995385;28;20195;-78
2021/09/17 08:23:19;;;;;;;59.80;38.87;;;16.10;99.90;;;;;;4995242;28;20234;-78
2021/09/17 08:25:50;;;;;;;65.37;39.03;;;16.10;99.90;;;;;;4995691;28;20643;-78
2021/09/17 08:28:16;;;;;;;61.37;38.67;;;16.20;99.90;;;;;;4996319;28;20254;-78
2021/09/17 08:30:41;;;;;;;59.03;38.23;;;16.20;99.90;;;;;;4995969;28;20831;-78
2021/09/17 08:33:07;;;;;;;57.00;36.33;;;16.30;99.90;;;;;;4996867;28;20212;-77
2021/09/17 08:35:32;;;;;;;58.57;36.97;;;16.40;99.90;;;;;;4984655;28;20185;-78
2021/09/17 08:37:58;;;;;;;54.30;35.83;;;16.50;99.90;;;;;;4993330;28;20180;-79
2021/09/17 08:40:25;;;;;;;59.33;35.33;;;16.60;99.90;;;;;;4987462;28;20259;-78
2021/09/17 08:42:50;;;;;;;56.20;35.13;;;16.60;99.90;;;;;;4984547;28;20179;-78
2021/09/17 08:45:16;;;;;;;55.00;35.70;;;16.70;99.90;;;;;;4981004;28;20653;-79
2021/09/17 08:47:46;;;;;;;54.33;34.37;;;16.80;99.90;;;;;;4997147;28;20176;-79
2021/09/17 08:50:11;;;;;;;51.53;34.63;;;16.80;99.90;;;;;;4997731;28;20180;-78
2021/09/17 08:52:37;;;;;;;51.43;34.27;;;16.90;99.90;;;;;;4996039;28;20567;-78
2021/09/17 08:55:03;;;;;;;50.53;33.10;;;16.90;99.90;;;;;;5015607;28;20619;-78
2021/09/17 08:57:29;;;;;;;50.87;33.40;;;17.00;99.90;;;;;;5009612;28;20248;-78
2021/09/17 08:59:54;;;;;;;47.50;32.87;;;17.00;99.90;;;;;;5026817;28;20183;-78
2021/09/17 09:02:24;;;;;;;50.37;33.20;;;17.00;99.90;;;;;;5025724;28;20180;-77
2021/09/17 09:05:01;;;;;;;49.97;32.93;;;17.00;99.90;;;;;;4978236;28;20215;-78
2021/09/17 09:07:31;;;;;;;50.37;33.03;;;17.10;99.90;;;;;;4989638;28;20184;-78
2021/09/17 09:10:13;;;;;;;49.23;32.23;;;17.10;99.90;;;;;;4993753;28;20183;-78
2021/09/17 09:12:42;;;;;;;47.73;31.83;;;17.30;99.90;;;;;;5010481;28;20200;-77
2021/09/17 09:15:14;;;;;;;46.50;31.13;;;17.40;99.90;;;;;;4993311;28;20662;-78
2021/09/17 09:17:41;;;;;;;49.03;32.03;;;17.50;99.90;;;;;;4993426;28;20184;-78
2021/09/17 09:20:23;;;;;;;46.90;31.40;;;17.50;99.90;;;;;;5009723;28;20176;-78
2021/09/17 09:23:04;;;;;;;46.30;30.50;;;17.40;99.90;;;;;;4983484;28;20196;-78
2021/09/17 09:25:30;;;;;;;45.17;31.03;;;17.50;99.90;;;;;;4986132;28;20207;-78
2021/09/17 09:28:16;;;;;;;41.40;28.80;;;17.60;99.90;;;;;;5011007;28;20260;-79
2021/09/17 09:30:41;;;;;;;40.50;27.37;;;17.70;99.90;;;;;;4980180;28;20271;-80
2021/09/17 09:33:28;;;;;;;42.20;29.63;;;17.70;99.90;;;;;;4982567;28;20259;-82
2021/09/17 09:36:13;;;;;;;44.53;29.23;;;17.90;99.90;;;;;;5016969;23;20700;-76
2021/09/17 09:38:55;;;;;;;41.73;27.43;;;18.10;99.90;;;;;;5015526;28;20262;-76
2021/09/17 09:41:27;;;;;;;37.63;28.03;;;18.10;99.90;;;;;;5032322;28;20552;-77
2021/09/17 09:44:02;;;;;;;40.90;26.70;;;18.30;99.90;;;;;;5032438;28;20163;-78
2021/09/17 09:46:38;;;;;;;38.17;26.27;;;18.40;99.90;;;;;;4992729;28;20208;-77
2021/09/17 09:49:09;;;;;;;32.77;24.40;;;18.50;99.90;;;;;;4992517;28;20524;-77
2021/09/17 09:52:01;;;;;;;31.37;22.97;;;18.60;99.90;;;;;;4992674;28;20216;-77
2021/09/17 09:54:30;;;;;;;31.80;21.30;;;18.80;99.90;;;;;;5006024;28;20210;-77
2021/09/17 09:56:56;;;;;;;32.63;22.67;;;18.90;99.90;;;;;;5012330;28;20192;-77
2021/09/17 09:59:26;;;;;;;33.40;22.30;;;18.90;99.90;;;;;;5012187;28;20522;-77
2021/09/17 10:01:53;;;;;;;33.67;22.97;;;18.80;99.90;;;;;;5012958;28;20175;-77
2021/09/17 10:04:20;;;;;;;30.97;21.20;;;18.80;99.90;;;;;;5012211;28;20221;-77
2021/09/17 10:06:46;;;;;;;29.20;21.53;;;18.80;99.90;;;;;;4995905;28;20179;-77
2021/09/17 10:09:12;;;;;;;33.57;23.83;;;18.90;99.90;;;;;;5003153;28;20192;-76
2021/09/17 10:11:38;;;;;;;31.27;21.70;;;19.10;99.90;;;;;;4992905;28;20207;-76
2021/09/17 10:14:06;;;;;;;28.60;21.10;;;19.20;99.90;;;;;;4992889;28;20226;-77
2021/09/17 10:16:31;;;;;;;29.93;21.00;;;19.30;99.90;;;;;;4976608;28;20204;-76
2021/09/17 10:18:57;;;;;;;28.50;20.80;;;19.40;99.90;;;;;;4991876;28;20544;-76
2021/09/17 10:21:59;;;;;;;23.70;17.57;;;19.60;99.90;;;;;;4975845;28;20184;-76
2021/09/17 10:24:27;;;;;;;20.57;16.40;;;19.70;99.90;;;;;;4933032;29;20273;-76
2021/09/17 10:26:58;;;;;;;22.77;17.07;;;19.70;99.90;;;;;;4980358;28;20192;-77
2021/09/17 10:29:37;;;;;;;22.37;16.93;;;19.70;99.90;;;;;;4991729;28;20184;-76
2021/09/17 10:32:04;;;;;;;22.80;17.23;;;19.80;99.90;;;;;;4992079;28;20192;-78
2021/09/17 10:34:40;;;;;;;24.67;17.93;;;19.90;99.90;;;;;;5006723;28;20241;-76
2021/09/17 10:37:07;;;;;;;24.63;18.33;;;20.00;99.90;;;;;;5011615;28;20538;-76
2021/09/17 10:39:32;;;;;;;25.83;19.20;;;20.20;99.90;;;;;;5011393;28;20547;-76
2021/09/17 10:42:14;;;;;;;24.73;18.53;;;20.40;99.90;;;;;;5011699;28;20187;-77
2021/09/17 10:45:02;;;;;;;21.73;16.47;;;20.70;99.90;;;;;;4994909;28;20196;-76
2021/09/17 10:47:40;;;;;;;21.83;15.73;;;21.00;99.90;;;;;;5011281;28;20191;-77
2021/09/17 10:50:10;;;;;;;23.47;17.03;;;21.10;99.90;;;;;;5012199;28;20262;-76
2021/09/17 10:52:43;;;;;;;22.07;17.23;;;21.10;99.90;;;;;;5011297;28;20211;-76
2021/09/17 10:55:28;;;;;;;21.20;16.83;;;21.20;99.90;;;;;;4994942;28;20699;-76
2021/09/17 10:58:24;;;;;;;20.83;16.17;;;21.10;99.90;;;;;;5011134;28;20171;-76
2021/09/17 11:01:00;;;;;;;23.23;17.30;;;20.90;99.90;;;;;;5011169;28;20185;-78
2021/09/17 11:03:48;;;;;;;20.87;17.10;;;20.80;99.90;;;;;;4992802;28;20203;-76
2021/09/17 11:08:46;;;;;;;22.63;18.63;;;21.00;99.90;;;;;;5003249;28;20194;-76
2021/09/17 11:11:43;;;;;;;23.10;17.83;;;21.20;99.90;;;;;;5010932;28;20200;-75
2021/09/17 11:14:16;;;;;;;25.57;20.77;;;21.50;99.90;;;;;;5009115;28;20942;-75
2021/09/17 11:16:44;;;;;;;23.97;19.53;;;21.70;99.90;;;;;;4997218;28;20210;-75
2021/09/17 11:19:11;;;;;;;24.60;19.30;;;21.70;99.90;;;;;;5000799;28;20553;-75
2021/09/17 11:21:38;;;;;;;24.50;18.67;;;21.60;99.90;;;;;;5007154;28;20599;-75
2021/09/17 11:24:05;;;;;;;22.17;17.40;;;21.30;99.90;;;;;;4996913;28;20184;-75
2021/09/17 11:26:32;;;;;;;21.83;18.97;;;21.20;99.90;;;;;;4992243;28;20207;-75
2021/09/17 11:29:06;;;;;;;19.07;16.27;;;21.30;99.90;;;;;;4996522;28;20243;-75
2021/09/17 11:31:35;;;;;;;19.93;15.70;;;21.30;99.90;;;;;;5004362;28;20412;-75
2021/09/17 11:34:03;;;;;;;18.40;15.20;;;21.40;99.90;;;;;;4997130;28;20226;-75
2021/09/17 11:36:33;;;;;;;19.87;15.33;;;21.50;99.90;;;;;;5011376;28;20203;-75
2021/09/17 11:39:13;;;;;;;18.17;15.37;;;21.60;99.90;;;;;;5011371;28;20186;-75
2021/09/17 11:41:39;;;;;;;16.17;14.30;;;21.50;99.90;;;;;;5009679;28;20183;-76
2021/09/17 11:44:04;;;;;;;17.03;13.93;;;21.60;99.90;;;;;;5011224;28;20179;-75
2021/09/17 11:46:30;;;;;;;17.90;14.30;;;21.60;99.90;;;;;;4981047;28;20201;-75
2021/09/17 11:48:56;;;;;;;14.70;12.47;;;21.60;99.90;;;;;;5015250;28;20250;-77
2021/09/17 11:51:21;;;;;;;15.60;12.73;;;21.40;99.90;;;;;;4997223;28;20200;-76
2021/09/17 11:53:47;;;;;;;16.43;13.53;;;21.30;99.90;;;;;;4999435;28;20175;-75
2021/09/17 11:56:12;;;;;;;20.03;13.53;;;21.20;99.90;;;;;;5005772;28;20199;-75
2021/09/17 11:58:45;;;;;;;15.47;12.90;;;21.20;99.90;;;;;;4999898;28;20235;-74
2021/09/17 12:01:25;;;;;;;15.17;12.47;;;21.10;99.90;;;;;;4993026;28;20259;-75
2021/09/17 12:03:52;;;;;;;17.10;11.93;;;21.00;99.90;;;;;;4981981;28;20191;-75
2021/09/17 12:06:18;;;;;;;16.23;14.37;;;20.90;99.90;;;;;;5019050;28;20204;-75
2021/09/17 12:08:43;;;;;;;16.90;13.20;;;20.80;99.90;;;;;;5002453;28;20187;-75
2021/09/17 12:11:09;;;;;;;17.40;14.83;;;20.70;99.90;;;;;;4997759;28;20190;-75
2021/09/17 12:13:34;;;;;;;21.10;15.27;;;20.70;99.90;;;;;;5008537;28;20176;-74
2021/09/17 12:16:05;;;;;;;19.63;15.53;;;20.60;99.90;;;;;;4989156;28;20192;-75
2021/09/17 12:18:30;;;;;;;21.37;15.50;;;20.60;99.90;;;;;;4987830;28;21511;-74
2021/09/17 12:21:00;;;;;;;18.77;15.13;;;20.60;99.90;;;;;;5007552;28;20182;-75
2021/09/17 12:23:34;;;;;;;20.60;16.17;;;20.50;99.90;;;;;;5009627;28;20179;-74
2021/09/17 12:26:13;;;;;;;19.67;15.40;;;20.40;99.90;;;;;;5002506;28;20219;-75
2021/09/17 12:28:40;;;;;;;20.17;15.50;;;20.40;99.90;;;;;;4977703;28;20188;-75
2021/09/17 12:31:08;;;;;;;21.53;15.43;;;20.40;99.90;;;;;;5009407;28;20683;-76
2021/09/17 12:33:34;;;;;;;22.23;17.40;;;20.50;99.90;;;;;;5009040;28;20651;-75